sensor_id;sensor_type;location;lat;lon;timestamp;P1;durP1;ratioP1;P2;durP2;ratioP2
38859;SDS011;24609;48.316;16.174;2023-04-15T00:01:22;2.97;;;1.75;;
38859;SDS011;24609;48.316;16.174;2023-04-15T00:03:50;1.25;;;1.15;;
38859;SDS011;24609;48.316;16.174;2023-04-15T00:06:16;3.15;;;1.77;;
38859;SDS011;24609;48.316;16.174;2023-04-15T00:08:43;2.55;;;1.45;;
38859;SDS011;24609;48.316;16.174;2023-04-15T00:11:11;1.88;;;1.20;;
38859;SDS011;24609;48.316;16.174;2023-04-15T00:13:37;2.50;;;0.90;;
38859;SDS011;24609;48.316;16.174;2023-04-15T00:16:04;0.93;;;0.60;;
38859;SDS011;24609;48.316;16.174;2023-04-15T00:18:32;1.38;;;0.70;;
38859;SDS011;24609;48.316;16.174;2023-04-15T00:20:58;1.17;;;0.93;;
38859;SDS011;24609;48.316;16.174;2023-04-15T00:23:24;1.00;;;0.60;;
38859;SDS011;24609;48.316;16.174;2023-04-15T00:25:50;2.08;;;0.90;;
38859;SDS011;24609;48.316;16.174;2023-04-15T00:28:16;0.98;;;0.68;;
38859;SDS011;24609;48.316;16.174;2023-04-15T00:30:42;1.10;;;0.90;;
38859;SDS011;24609;48.316;16.174;2023-04-15T00:33:07;1.35;;;0.80;;
38859;SDS011;24609;48.316;16.174;2023-04-15T00:35:33;0.70;;;0.70;;
38859;SDS011;24609;48.316;16.174;2023-04-15T00:38:01;0.50;;;0.47;;
38859;SDS011;24609;48.316;16.174;2023-04-15T00:40:28;0.50;;;0.50;;
38859;SDS011;24609;48.316;16.174;2023-04-15T00:42:54;0.30;;;0.30;;
38859;SDS011;24609;48.316;16.174;2023-04-15T00:45:20;0.40;;;0.40;;
38859;SDS011;24609;48.316;16.174;2023-04-15T00:47:45;0.30;;;0.30;;
38859;SDS011;24609;48.316;16.174;2023-04-15T00:50:11;0.20;;;0.20;;
38859;SDS011;24609;48.316;16.174;2023-04-15T00:52:37;0.30;;;0.30;;
38859;SDS011;24609;48.316;16.174;2023-04-15T00:55:04;0.65;;;0.50;;
38859;SDS011;24609;48.316;16.174;2023-04-15T00:57:30;0.10;;;0.10;;
38859;SDS011;24609;48.316;16.174;2023-04-15T00:59:57;0.98;;;0.30;;
38859;SDS011;24609;48.316;16.174;2023-04-15T01:02:23;0.68;;;0.20;;
38859;SDS011;24609;48.316;16.174;2023-04-15T01:04:49;0.30;;;0.30;;
38859;SDS011;24609;48.316;16.174;2023-04-15T01:07:15;0.20;;;0.20;;
38859;SDS011;24609;48.316;16.174;2023-04-15T01:09:41;0.20;;;0.20;;
38859;SDS011;24609;48.316;16.174;2023-04-15T01:12:07;0.30;;;0.30;;
38859;SDS011;24609;48.316;16.174;2023-04-15T01:14:36;0.45;;;0.45;;
38859;SDS011;24609;48.316;16.174;2023-04-15T01:17:01;0.50;;;0.50;;
38859;SDS011;24609;48.316;16.174;2023-04-15T01:19:27;1.08;;;0.30;;
38859;SDS011;24609;48.316;16.174;2023-04-15T01:21:53;0.40;;;0.30;;
38859;SDS011;24609;48.316;16.174;2023-04-15T01:24:19;0.30;;;0.22;;
38859;SDS011;24609;48.316;16.174;2023-04-15T01:26:45;0.10;;;0.10;;
38859;SDS011;24609;48.316;16.174;2023-04-15T01:29:13;0.30;;;0.30;;
38859;SDS011;24609;48.316;16.174;2023-04-15T01:31:39;0.30;;;0.30;;
38859;SDS011;24609;48.316;16.174;2023-04-15T01:34:05;0.50;;;0.40;;
38859;SDS011;24609;48.316;16.174;2023-04-15T01:36:30;0.70;;;0.38;;
38859;SDS011;24609;48.316;16.174;2023-04-15T01:38:57;0.32;;;0.32;;
38859;SDS011;24609;48.316;16.174;2023-04-15T01:41:26;0.35;;;0.35;;
38859;SDS011;24609;48.316;16.174;2023-04-15T01:46:18;0.20;;;0.20;;
38859;SDS011;24609;48.316;16.174;2023-04-15T01:48:44;0.80;;;0.40;;
38859;SDS011;24609;48.316;16.174;2023-04-15T01:51:10;0.40;;;0.40;;
38859;SDS011;24609;48.316;16.174;2023-04-15T01:53:36;0.60;;;0.40;;
38859;SDS011;24609;48.316;16.174;2023-04-15T01:56:01;0.50;;;0.50;;
38859;SDS011;24609;48.316;16.174;2023-04-15T01:58:28;0.85;;;0.40;;
38859;SDS011;24609;48.316;16.174;2023-04-15T02:00:54;0.45;;;0.40;;
38859;SDS011;24609;48.316;16.174;2023-04-15T02:03:20;0.40;;;0.40;;
38859;SDS011;24609;48.316;16.174;2023-04-15T02:05:46;0.43;;;0.40;;
38859;SDS011;24609;48.316;16.174;2023-04-15T02:08:12;0.40;;;0.40;;
38859;SDS011;24609;48.316;16.174;2023-04-15T02:10:37;0.35;;;0.25;;
38859;SDS011;24609;48.316;16.174;2023-04-15T02:13:03;0.40;;;0.40;;
38859;SDS011;24609;48.316;16.174;2023-04-15T02:15:29;0.40;;;0.40;;
38859;SDS011;24609;48.316;16.174;2023-04-15T02:17:55;0.95;;;0.55;;
38859;SDS011;24609;48.316;16.174;2023-04-15T02:20:21;0.52;;;0.52;;
38859;SDS011;24609;48.316;16.174;2023-04-15T02:22:47;1.38;;;0.88;;
38859;SDS011;24609;48.316;16.174;2023-04-15T02:25:13;2.35;;;0.85;;
38859;SDS011;24609;48.316;16.174;2023-04-15T02:27:41;0.20;;;0.20;;
38859;SDS011;24609;48.316;16.174;2023-04-15T02:30:07;0.50;;;0.40;;
38859;SDS011;24609;48.316;16.174;2023-04-15T02:32:33;0.55;;;0.55;;
38859;SDS011;24609;48.316;16.174;2023-04-15T02:35:05;0.52;;;0.52;;
38859;SDS011;24609;48.316;16.174;2023-04-15T02:37:34;0.38;;;0.38;;
38859;SDS011;24609;48.316;16.174;2023-04-15T02:40:05;0.47;;;0.47;;
38859;SDS011;24609;48.316;16.174;2023-04-15T02:42:33;0.40;;;0.40;;
38859;SDS011;24609;48.316;16.174;2023-04-15T02:44:58;0.30;;;0.30;;
38859;SDS011;24609;48.316;16.174;2023-04-15T02:47:24;0.40;;;0.40;;
38859;SDS011;24609;48.316;16.174;2023-04-15T02:49:50;0.47;;;0.47;;
38859;SDS011;24609;48.316;16.174;2023-04-15T02:52:16;0.55;;;0.35;;
38859;SDS011;24609;48.316;16.174;2023-04-15T02:54:42;0.40;;;0.40;;
38859;SDS011;24609;48.316;16.174;2023-04-15T02:57:07;0.30;;;0.30;;
38859;SDS011;24609;48.316;16.174;2023-04-15T02:59:34;0.38;;;0.38;;
38859;SDS011;24609;48.316;16.174;2023-04-15T03:02:00;0.40;;;0.40;;
38859;SDS011;24609;48.316;16.174;2023-04-15T03:04:26;0.98;;;0.60;;
38859;SDS011;24609;48.316;16.174;2023-04-15T03:06:54;0.75;;;0.32;;
38859;SDS011;24609;48.316;16.174;2023-04-15T03:09:20;0.30;;;0.30;;
38859;SDS011;24609;48.316;16.174;2023-04-15T03:11:46;0.30;;;0.30;;
38859;SDS011;24609;48.316;16.174;2023-04-15T03:14:12;1.35;;;0.75;;
38859;SDS011;24609;48.316;16.174;2023-04-15T03:16:38;0.20;;;0.20;;
38859;SDS011;24609;48.316;16.174;2023-04-15T03:19:03;0.20;;;0.20;;
38859;SDS011;24609;48.316;16.174;2023-04-15T03:21:29;0.52;;;0.20;;
38859;SDS011;24609;48.316;16.174;2023-04-15T03:23:55;0.20;;;0.20;;
38859;SDS011;24609;48.316;16.174;2023-04-15T03:26:27;0.43;;;0.43;;
38859;SDS011;24609;48.316;16.174;2023-04-15T03:28:54;0.77;;;0.40;;
38859;SDS011;24609;48.316;16.174;2023-04-15T03:31:20;0.20;;;0.20;;
38859;SDS011;24609;48.316;16.174;2023-04-15T03:33:46;0.30;;;0.20;;
38859;SDS011;24609;48.316;16.174;2023-04-15T03:36:11;0.20;;;0.20;;
38859;SDS011;24609;48.316;16.174;2023-04-15T03:38:37;0.20;;;0.20;;
38859;SDS011;24609;48.316;16.174;2023-04-15T03:41:03;0.22;;;0.22;;
38859;SDS011;24609;48.316;16.174;2023-04-15T03:43:29;0.20;;;0.20;;
38859;SDS011;24609;48.316;16.174;2023-04-15T03:45:55;0.38;;;0.30;;
38859;SDS011;24609;48.316;16.174;2023-04-15T03:48:21;0.30;;;0.30;;
38859;SDS011;24609;48.316;16.174;2023-04-15T03:50:46;0.25;;;0.22;;
38859;SDS011;24609;48.316;16.174;2023-04-15T03:53:12;0.20;;;0.20;;
38859;SDS011;24609;48.316;16.174;2023-04-15T03:55:38;0.20;;;0.20;;
38859;SDS011;24609;48.316;16.174;2023-04-15T03:58:04;0.25;;;0.25;;
38859;SDS011;24609;48.316;16.174;2023-04-15T04:00:30;1.05;;;0.32;;
38859;SDS011;24609;48.316;16.174;2023-04-15T04:02:55;0.20;;;0.20;;
38859;SDS011;24609;48.316;16.174;2023-04-15T04:05:21;0.20;;;0.20;;
38859;SDS011;24609;48.316;16.174;2023-04-15T04:07:47;0.43;;;0.30;;
38859;SDS011;24609;48.316;16.174;2023-04-15T04:10:12;0.30;;;0.30;;
38859;SDS011;24609;48.316;16.174;2023-04-15T04:12:38;0.20;;;0.20;;
38859;SDS011;24609;48.316;16.174;2023-04-15T04:15:04;0.20;;;0.20;;
38859;SDS011;24609;48.316;16.174;2023-04-15T04:17:30;0.70;;;0.20;;
38859;SDS011;24609;48.316;16.174;2023-04-15T04:19:56;0.30;;;0.20;;
38859;SDS011;24609;48.316;16.174;2023-04-15T04:22:22;0.10;;;0.10;;
38859;SDS011;24609;48.316;16.174;2023-04-15T04:24:54;0.10;;;0.10;;
38859;SDS011;24609;48.316;16.174;2023-04-15T04:27:20;0.20;;;0.17;;
38859;SDS011;24609;48.316;16.174;2023-04-15T04:29:46;0.73;;;0.32;;
38859;SDS011;24609;48.316;16.174;2023-04-15T04:32:13;2.47;;;0.90;;
38859;SDS011;24609;48.316;16.174;2023-04-15T04:34:39;1.65;;;0.47;;
38859;SDS011;24609;48.316;16.174;2023-04-15T04:37:05;0.20;;;0.20;;
38859;SDS011;24609;48.316;16.174;2023-04-15T04:39:31;1.45;;;0.55;;
38859;SDS011;24609;48.316;16.174;2023-04-15T04:41:56;0.10;;;0.10;;
38859;SDS011;24609;48.316;16.174;2023-04-15T04:44:22;0.20;;;0.20;;
38859;SDS011;24609;48.316;16.174;2023-04-15T04:46:48;0.20;;;0.20;;
38859;SDS011;24609;48.316;16.174;2023-04-15T04:49:13;0.10;;;0.10;;
38859;SDS011;24609;48.316;16.174;2023-04-15T04:51:39;0.25;;;0.20;;
38859;SDS011;24609;48.316;16.174;2023-04-15T04:54:05;0.10;;;0.10;;
38859;SDS011;24609;48.316;16.174;2023-04-15T04:56:30;0.10;;;0.10;;
38859;SDS011;24609;48.316;16.174;2023-04-15T04:58:58;0.20;;;0.20;;
38859;SDS011;24609;48.316;16.174;2023-04-15T05:01:23;0.10;;;0.10;;
38859;SDS011;24609;48.316;16.174;2023-04-15T05:03:51;0.10;;;0.10;;
38859;SDS011;24609;48.316;16.174;2023-04-15T05:06:17;0.10;;;0.10;;
38859;SDS011;24609;48.316;16.174;2023-04-15T05:08:42;0.10;;;0.10;;
38859;SDS011;24609;48.316;16.174;2023-04-15T05:11:08;0.20;;;0.20;;
38859;SDS011;24609;48.316;16.174;2023-04-15T05:13:34;0.10;;;0.10;;
38859;SDS011;24609;48.316;16.174;2023-04-15T05:16:03;0.10;;;0.10;;
38859;SDS011;24609;48.316;16.174;2023-04-15T05:18:29;0.10;;;0.10;;
38859;SDS011;24609;48.316;16.174;2023-04-15T05:20:55;0.20;;;0.20;;
38859;SDS011;24609;48.316;16.174;2023-04-15T05:23:21;0.10;;;0.10;;
38859;SDS011;24609;48.316;16.174;2023-04-15T05:25:47;0.35;;;0.35;;
38859;SDS011;24609;48.316;16.174;2023-04-15T05:28:12;0.20;;;0.20;;
38859;SDS011;24609;48.316;16.174;2023-04-15T05:30:38;0.20;;;0.20;;
38859;SDS011;24609;48.316;16.174;2023-04-15T05:33:04;0.10;;;0.10;;
38859;SDS011;24609;48.316;16.174;2023-04-15T05:35:30;0.10;;;0.10;;
38859;SDS011;24609;48.316;16.174;2023-04-15T05:37:56;0.20;;;0.20;;
38859;SDS011;24609;48.316;16.174;2023-04-15T05:40:21;0.10;;;0.10;;
38859;SDS011;24609;48.316;16.174;2023-04-15T05:42:47;0.10;;;0.10;;
38859;SDS011;24609;48.316;16.174;2023-04-15T05:45:13;0.10;;;0.10;;
38859;SDS011;24609;48.316;16.174;2023-04-15T05:47:38;0.10;;;0.10;;
38859;SDS011;24609;48.316;16.174;2023-04-15T05:50:04;0.30;;;0.30;;
38859;SDS011;24609;48.316;16.174;2023-04-15T05:52:30;0.15;;;0.15;;
38859;SDS011;24609;48.316;16.174;2023-04-15T05:54:56;0.47;;;0.30;;
38859;SDS011;24609;48.316;16.174;2023-04-15T05:57:23;0.10;;;0.10;;
38859;SDS011;24609;48.316;16.174;2023-04-15T05:59:49;0.10;;;0.10;;
38859;SDS011;24609;48.316;16.174;2023-04-15T06:02:16;0.70;;;0.22;;
38859;SDS011;24609;48.316;16.174;2023-04-15T06:04:42;0.10;;;0.10;;
38859;SDS011;24609;48.316;16.174;2023-04-15T06:07:08;0.13;;;0.13;;
38859;SDS011;24609;48.316;16.174;2023-04-15T06:09:34;0.20;;;0.20;;
38859;SDS011;24609;48.316;16.174;2023-04-15T06:12:00;0.10;;;0.10;;
38859;SDS011;24609;48.316;16.174;2023-04-15T06:14:26;0.10;;;0.10;;
38859;SDS011;24609;48.316;16.174;2023-04-15T06:16:52;0.15;;;0.15;;
38859;SDS011;24609;48.316;16.174;2023-04-15T06:19:17;0.10;;;0.10;;
38859;SDS011;24609;48.316;16.174;2023-04-15T06:21:44;0.30;;;0.30;;
38859;SDS011;24609;48.316;16.174;2023-04-15T06:24:10;0.20;;;0.20;;
38859;SDS011;24609;48.316;16.174;2023-04-15T06:26:36;0.77;;;0.30;;
38859;SDS011;24609;48.316;16.174;2023-04-15T06:29:02;0.15;;;0.15;;
38859;SDS011;24609;48.316;16.174;2023-04-15T06:31:28;1.17;;;0.73;;
38859;SDS011;24609;48.316;16.174;2023-04-15T06:33:54;0.60;;;0.40;;
38859;SDS011;24609;48.316;16.174;2023-04-15T06:36:20;0.40;;;0.40;;
38859;SDS011;24609;48.316;16.174;2023-04-15T06:38:46;0.70;;;0.40;;
38859;SDS011;24609;48.316;16.174;2023-04-15T06:41:11;0.15;;;0.15;;
38859;SDS011;24609;48.316;16.174;2023-04-15T06:43:38;1.45;;;0.15;;
38859;SDS011;24609;48.316;16.174;2023-04-15T06:46:07;0.20;;;0.20;;
38859;SDS011;24609;48.316;16.174;2023-04-15T06:48:33;0.20;;;0.20;;
38859;SDS011;24609;48.316;16.174;2023-04-15T06:50:59;0.20;;;0.20;;
38859;SDS011;24609;48.316;16.174;2023-04-15T06:53:29;0.17;;;0.15;;
38859;SDS011;24609;48.316;16.174;2023-04-15T06:55:55;0.20;;;0.20;;
38859;SDS011;24609;48.316;16.174;2023-04-15T06:58:21;0.10;;;0.10;;
38859;SDS011;24609;48.316;16.174;2023-04-15T07:00:46;0.10;;;0.10;;
38859;SDS011;24609;48.316;16.174;2023-04-15T07:03:13;0.10;;;0.10;;
38859;SDS011;24609;48.316;16.174;2023-04-15T07:05:39;0.25;;;0.25;;
38859;SDS011;24609;48.316;16.174;2023-04-15T07:08:05;0.15;;;0.15;;
38859;SDS011;24609;48.316;16.174;2023-04-15T07:10:32;0.35;;;0.22;;
38859;SDS011;24609;48.316;16.174;2023-04-15T07:12:58;0.20;;;0.20;;
38859;SDS011;24609;48.316;16.174;2023-04-15T07:15:24;0.28;;;0.28;;
38859;SDS011;24609;48.316;16.174;2023-04-15T07:17:50;0.68;;;0.30;;
38859;SDS011;24609;48.316;16.174;2023-04-15T07:20:15;0.10;;;0.10;;
38859;SDS011;24609;48.316;16.174;2023-04-15T07:22:41;0.13;;;0.13;;
38859;SDS011;24609;48.316;16.174;2023-04-15T07:25:07;0.60;;;0.35;;
38859;SDS011;24609;48.316;16.174;2023-04-15T07:27:33;0.20;;;0.20;;
38859;SDS011;24609;48.316;16.174;2023-04-15T07:29:59;0.45;;;0.40;;
38859;SDS011;24609;48.316;16.174;2023-04-15T07:32:25;0.75;;;0.25;;
38859;SDS011;24609;48.316;16.174;2023-04-15T07:34:51;0.20;;;0.20;;
38859;SDS011;24609;48.316;16.174;2023-04-15T07:37:17;0.73;;;0.20;;
38859;SDS011;24609;48.316;16.174;2023-04-15T07:39:43;0.30;;;0.30;;
38859;SDS011;24609;48.316;16.174;2023-04-15T07:42:10;0.10;;;0.10;;
38859;SDS011;24609;48.316;16.174;2023-04-15T07:44:35;0.25;;;0.10;;
38859;SDS011;24609;48.316;16.174;2023-04-15T07:47:01;0.30;;;0.30;;
38859;SDS011;24609;48.316;16.174;2023-04-15T07:49:28;0.10;;;0.10;;
38859;SDS011;24609;48.316;16.174;2023-04-15T07:51:53;1.23;;;0.47;;
38859;SDS011;24609;48.316;16.174;2023-04-15T07:54:21;0.10;;;0.10;;
38859;SDS011;24609;48.316;16.174;2023-04-15T07:56:47;0.38;;;0.20;;
38859;SDS011;24609;48.316;16.174;2023-04-15T07:59:13;0.82;;;0.30;;
38859;SDS011;24609;48.316;16.174;2023-04-15T08:01:42;0.70;;;0.20;;
38859;SDS011;24609;48.316;16.174;2023-04-15T08:04:08;0.17;;;0.17;;
38859;SDS011;24609;48.316;16.174;2023-04-15T08:06:34;0.20;;;0.20;;
38859;SDS011;24609;48.316;16.174;2023-04-15T08:09:00;0.30;;;0.30;;
38859;SDS011;24609;48.316;16.174;2023-04-15T08:11:26;0.38;;;0.32;;
38859;SDS011;24609;48.316;16.174;2023-04-15T08:13:52;0.20;;;0.20;;
38859;SDS011;24609;48.316;16.174;2023-04-15T08:16:19;0.25;;;0.25;;
38859;SDS011;24609;48.316;16.174;2023-04-15T08:18:46;1.20;;;0.47;;
38859;SDS011;24609;48.316;16.174;2023-04-15T08:21:12;0.77;;;0.65;;
38859;SDS011;24609;48.316;16.174;2023-04-15T08:23:38;0.20;;;0.20;;
38859;SDS011;24609;48.316;16.174;2023-04-15T08:26:04;0.30;;;0.30;;
38859;SDS011;24609;48.316;16.174;2023-04-15T08:28:30;0.63;;;0.30;;
38859;SDS011;24609;48.316;16.174;2023-04-15T08:30:56;0.40;;;0.40;;
38859;SDS011;24609;48.316;16.174;2023-04-15T08:33:22;0.20;;;0.20;;
38859;SDS011;24609;48.316;16.174;2023-04-15T08:35:48;0.43;;;0.30;;
38859;SDS011;24609;48.316;16.174;2023-04-15T08:38:13;0.52;;;0.30;;
38859;SDS011;24609;48.316;16.174;2023-04-15T08:40:43;0.28;;;0.28;;
38859;SDS011;24609;48.316;16.174;2023-04-15T08:43:11;0.17;;;0.17;;
38859;SDS011;24609;48.316;16.174;2023-04-15T08:45:39;0.40;;;0.40;;
38859;SDS011;24609;48.316;16.174;2023-04-15T08:48:06;0.40;;;0.40;;
38859;SDS011;24609;48.316;16.174;2023-04-15T08:50:36;0.30;;;0.22;;
38859;SDS011;24609;48.316;16.174;2023-04-15T08:53:02;0.30;;;0.30;;
38859;SDS011;24609;48.316;16.174;2023-04-15T08:55:36;1.38;;;0.30;;
38859;SDS011;24609;48.316;16.174;2023-04-15T08:58:08;0.32;;;0.30;;
38859;SDS011;24609;48.316;16.174;2023-04-15T09:00:35;0.45;;;0.35;;
38859;SDS011;24609;48.316;16.174;2023-04-15T09:03:03;0.40;;;0.40;;
38859;SDS011;24609;48.316;16.174;2023-04-15T09:05:31;0.30;;;0.30;;
38859;SDS011;24609;48.316;16.174;2023-04-15T09:08:01;0.30;;;0.30;;
38859;SDS011;24609;48.316;16.174;2023-04-15T09:10:27;0.45;;;0.30;;
38859;SDS011;24609;48.316;16.174;2023-04-15T09:13:02;0.13;;;0.13;;
38859;SDS011;24609;48.316;16.174;2023-04-15T09:15:36;0.20;;;0.20;;
38859;SDS011;24609;48.316;16.174;2023-04-15T09:18:32;0.20;;;0.20;;
38859;SDS011;24609;48.316;16.174;2023-04-15T09:21:10;0.10;;;0.10;;
38859;SDS011;24609;48.316;16.174;2023-04-15T09:24:00;0.20;;;0.20;;
38859;SDS011;24609;48.316;16.174;2023-04-15T09:26:32;0.20;;;0.20;;
38859;SDS011;24609;48.316;16.174;2023-04-15T09:29:06;1.33;;;0.63;;
38859;SDS011;24609;48.316;16.174;2023-04-15T09:31:40;0.30;;;0.30;;
38859;SDS011;24609;48.316;16.174;2023-04-15T09:34:06;0.22;;;0.22;;
38859;SDS011;24609;48.316;16.174;2023-04-15T09:39:10;0.30;;;0.30;;
38859;SDS011;24609;48.316;16.174;2023-04-15T09:41:36;0.45;;;0.35;;
38859;SDS011;24609;48.316;16.174;2023-04-15T09:44:02;0.20;;;0.20;;
38859;SDS011;24609;48.316;16.174;2023-04-15T09:46:41;0.30;;;0.30;;
38859;SDS011;24609;48.316;16.174;2023-04-15T09:49:30;0.20;;;0.20;;
38859;SDS011;24609;48.316;16.174;2023-04-15T09:52:06;0.28;;;0.20;;
38859;SDS011;24609;48.316;16.174;2023-04-15T09:54:43;0.43;;;0.40;;
38859;SDS011;24609;48.316;16.174;2023-04-15T09:57:29;0.20;;;0.20;;
38859;SDS011;24609;48.316;16.174;2023-04-15T10:00:21;0.30;;;0.30;;
38859;SDS011;24609;48.316;16.174;2023-04-15T10:06:05;0.90;;;0.22;;
38859;SDS011;24609;48.316;16.174;2023-04-15T10:08:43;0.70;;;0.57;;
38859;SDS011;24609;48.316;16.174;2023-04-15T10:11:12;0.50;;;0.30;;
38859;SDS011;24609;48.316;16.174;2023-04-15T10:13:40;0.47;;;0.30;;
38859;SDS011;24609;48.316;16.174;2023-04-15T10:19:12;0.20;;;0.20;;
38859;SDS011;24609;48.316;16.174;2023-04-15T10:21:49;0.30;;;0.30;;
38859;SDS011;24609;48.316;16.174;2023-04-15T10:24:18;0.30;;;0.30;;
38859;SDS011;24609;48.316;16.174;2023-04-15T10:26:45;0.30;;;0.30;;
38859;SDS011;24609;48.316;16.174;2023-04-15T10:29:14;0.50;;;0.50;;
38859;SDS011;24609;48.316;16.174;2023-04-15T10:31:40;0.30;;;0.30;;
38859;SDS011;24609;48.316;16.174;2023-04-15T10:34:06;0.20;;;0.20;;
38859;SDS011;24609;48.316;16.174;2023-04-15T10:36:33;0.20;;;0.20;;
38859;SDS011;24609;48.316;16.174;2023-04-15T10:38:58;0.93;;;0.38;;
38859;SDS011;24609;48.316;16.174;2023-04-15T10:41:30;0.63;;;0.50;;
38859;SDS011;24609;48.316;16.174;2023-04-15T10:46:36;0.10;;;0.10;;
38859;SDS011;24609;48.316;16.174;2023-04-15T10:51:40;0.20;;;0.20;;
38859;SDS011;24609;48.316;16.174;2023-04-15T10:54:18;0.30;;;0.30;;
38859;SDS011;24609;48.316;16.174;2023-04-15T10:59:34;0.20;;;0.20;;
38859;SDS011;24609;48.316;16.174;2023-04-15T11:02:02;1.05;;;0.30;;
38859;SDS011;24609;48.316;16.174;2023-04-15T11:12:46;1.33;;;0.30;;
38859;SDS011;24609;48.316;16.174;2023-04-15T11:15:34;1.38;;;0.30;;
38859;SDS011;24609;48.316;16.174;2023-04-15T11:20:50;0.30;;;0.30;;
38859;SDS011;24609;48.316;16.174;2023-04-15T11:23:31;0.20;;;0.20;;
38859;SDS011;24609;48.316;16.174;2023-04-15T11:26:00;0.30;;;0.30;;
38859;SDS011;24609;48.316;16.174;2023-04-15T11:28:27;0.40;;;0.40;;
38859;SDS011;24609;48.316;16.174;2023-04-15T11:30:54;1.00;;;0.63;;
38859;SDS011;24609;48.316;16.174;2023-04-15T11:33:24;0.73;;;0.30;;
38859;SDS011;24609;48.316;16.174;2023-04-15T11:35:51;0.80;;;0.30;;
38859;SDS011;24609;48.316;16.174;2023-04-15T11:38:18;0.55;;;0.30;;
38859;SDS011;24609;48.316;16.174;2023-04-15T11:40:44;0.30;;;0.30;;
38859;SDS011;24609;48.316;16.174;2023-04-15T11:43:11;0.32;;;0.25;;
38859;SDS011;24609;48.316;16.174;2023-04-15T11:45:47;0.22;;;0.22;;
38859;SDS011;24609;48.316;16.174;2023-04-15T11:48:13;0.50;;;0.50;;
38859;SDS011;24609;48.316;16.174;2023-04-15T11:50:42;0.20;;;0.20;;
38859;SDS011;24609;48.316;16.174;2023-04-15T11:53:11;0.40;;;0.35;;
38859;SDS011;24609;48.316;16.174;2023-04-15T12:19:31;0.70;;;0.47;;
38859;SDS011;24609;48.316;16.174;2023-04-15T12:22:10;0.38;;;0.30;;
38859;SDS011;24609;48.316;16.174;2023-04-15T12:24:38;0.20;;;0.20;;
38859;SDS011;24609;48.316;16.174;2023-04-15T12:27:15;0.10;;;0.10;;
38859;SDS011;24609;48.316;16.174;2023-04-15T12:29:44;0.40;;;0.40;;
38859;SDS011;24609;48.316;16.174;2023-04-15T12:32:15;0.35;;;0.35;;
38859;SDS011;24609;48.316;16.174;2023-04-15T12:34:51;0.57;;;0.50;;
38859;SDS011;24609;48.316;16.174;2023-04-15T12:37:22;1.38;;;1.10;;
38859;SDS011;24609;48.316;16.174;2023-04-15T12:39:48;0.45;;;0.45;;
38859;SDS011;24609;48.316;16.174;2023-04-15T12:42:14;0.25;;;0.25;;
38859;SDS011;24609;48.316;16.174;2023-04-15T12:44:41;0.40;;;0.40;;
38859;SDS011;24609;48.316;16.174;2023-04-15T12:47:07;0.55;;;0.55;;
38859;SDS011;24609;48.316;16.174;2023-04-15T12:49:34;0.30;;;0.30;;
38859;SDS011;24609;48.316;16.174;2023-04-15T12:52:00;0.75;;;0.57;;
38859;SDS011;24609;48.316;16.174;2023-04-15T12:54:27;0.57;;;0.50;;
38859;SDS011;24609;48.316;16.174;2023-04-15T12:56:55;1.05;;;0.60;;
38859;SDS011;24609;48.316;16.174;2023-04-15T12:59:21;0.68;;;0.50;;
38859;SDS011;24609;48.316;16.174;2023-04-15T13:01:48;2.67;;;0.52;;
38859;SDS011;24609;48.316;16.174;2023-04-15T13:04:14;0.50;;;0.30;;
38859;SDS011;24609;48.316;16.174;2023-04-15T13:06:43;0.57;;;0.50;;
38859;SDS011;24609;48.316;16.174;2023-04-15T13:09:08;1.60;;;0.80;;
38859;SDS011;24609;48.316;16.174;2023-04-15T13:11:34;1.00;;;0.50;;
38859;SDS011;24609;48.316;16.174;2023-04-15T13:14:04;0.57;;;0.57;;
38859;SDS011;24609;48.316;16.174;2023-04-15T13:16:31;0.70;;;0.50;;
38859;SDS011;24609;48.316;16.174;2023-04-15T13:18:58;1.02;;;0.77;;
38859;SDS011;24609;48.316;16.174;2023-04-15T13:21:24;0.80;;;0.60;;
38859;SDS011;24609;48.316;16.174;2023-04-15T13:23:52;1.55;;;0.60;;
38859;SDS011;24609;48.316;16.174;2023-04-15T13:26:18;0.77;;;0.40;;
38859;SDS011;24609;48.316;16.174;2023-04-15T13:28:44;0.45;;;0.32;;
38859;SDS011;24609;48.316;16.174;2023-04-15T13:31:10;1.23;;;0.75;;
38859;SDS011;24609;48.316;16.174;2023-04-15T13:33:37;0.98;;;0.38;;
38859;SDS011;24609;48.316;16.174;2023-04-15T13:36:06;0.60;;;0.45;;
38859;SDS011;24609;48.316;16.174;2023-04-15T13:38:32;0.73;;;0.50;;
38859;SDS011;24609;48.316;16.174;2023-04-15T13:40:58;0.63;;;0.35;;
38859;SDS011;24609;48.316;16.174;2023-04-15T13:43:24;0.40;;;0.40;;
38859;SDS011;24609;48.316;16.174;2023-04-15T13:45:51;0.30;;;0.30;;
38859;SDS011;24609;48.316;16.174;2023-04-15T13:48:17;0.55;;;0.50;;
38859;SDS011;24609;48.316;16.174;2023-04-15T13:50:43;0.57;;;0.40;;
38859;SDS011;24609;48.316;16.174;2023-04-15T13:53:12;0.40;;;0.40;;
38859;SDS011;24609;48.316;16.174;2023-04-15T13:55:37;0.50;;;0.50;;
38859;SDS011;24609;48.316;16.174;2023-04-15T13:58:06;0.30;;;0.30;;
38859;SDS011;24609;48.316;16.174;2023-04-15T14:00:32;1.02;;;0.47;;
38859;SDS011;24609;48.316;16.174;2023-04-15T14:02:57;0.68;;;0.30;;
38859;SDS011;24609;48.316;16.174;2023-04-15T14:05:23;0.30;;;0.30;;
38859;SDS011;24609;48.316;16.174;2023-04-15T14:07:49;0.35;;;0.25;;
38859;SDS011;24609;48.316;16.174;2023-04-15T14:10:15;1.42;;;0.45;;
38859;SDS011;24609;48.316;16.174;2023-04-15T14:12:40;0.60;;;0.50;;
38859;SDS011;24609;48.316;16.174;2023-04-15T14:15:06;1.45;;;0.55;;
38859;SDS011;24609;48.316;16.174;2023-04-15T14:17:32;1.20;;;0.80;;
38859;SDS011;24609;48.316;16.174;2023-04-15T14:19:58;1.15;;;0.75;;
38859;SDS011;24609;48.316;16.174;2023-04-15T14:22:24;0.70;;;0.60;;
38859;SDS011;24609;48.316;16.174;2023-04-15T14:24:50;0.40;;;0.40;;
38859;SDS011;24609;48.316;16.174;2023-04-15T14:27:17;0.47;;;0.47;;
38859;SDS011;24609;48.316;16.174;2023-04-15T14:29:43;0.70;;;0.50;;
38859;SDS011;24609;48.316;16.174;2023-04-15T14:32:09;0.73;;;0.60;;
38859;SDS011;24609;48.316;16.174;2023-04-15T14:34:34;0.52;;;0.43;;
38859;SDS011;24609;48.316;16.174;2023-04-15T14:37:01;0.80;;;0.70;;
38859;SDS011;24609;48.316;16.174;2023-04-15T14:39:27;1.00;;;0.80;;
38859;SDS011;24609;48.316;16.174;2023-04-15T14:41:53;0.77;;;0.60;;
38859;SDS011;24609;48.316;16.174;2023-04-15T14:44:19;0.70;;;0.70;;
38859;SDS011;24609;48.316;16.174;2023-04-15T14:46:45;5.47;;;0.65;;
38859;SDS011;24609;48.316;16.174;2023-04-15T14:49:11;0.70;;;0.65;;
38859;SDS011;24609;48.316;16.174;2023-04-15T14:51:36;1.15;;;0.80;;
38859;SDS011;24609;48.316;16.174;2023-04-15T14:54:02;0.93;;;0.70;;
38859;SDS011;24609;48.316;16.174;2023-04-15T14:56:28;1.15;;;0.82;;
38859;SDS011;24609;48.316;16.174;2023-04-15T14:58:53;0.77;;;0.68;;
38859;SDS011;24609;48.316;16.174;2023-04-15T15:01:19;1.33;;;0.90;;
38859;SDS011;24609;48.316;16.174;2023-04-15T15:03:45;0.75;;;0.73;;
38859;SDS011;24609;48.316;16.174;2023-04-15T15:06:12;2.22;;;0.95;;
38859;SDS011;24609;48.316;16.174;2023-04-15T15:08:38;0.70;;;0.60;;
38859;SDS011;24609;48.316;16.174;2023-04-15T15:11:03;0.93;;;0.77;;
38859;SDS011;24609;48.316;16.174;2023-04-15T15:13:29;0.98;;;0.88;;
38859;SDS011;24609;48.316;16.174;2023-04-15T15:15:55;1.50;;;0.80;;
38859;SDS011;24609;48.316;16.174;2023-04-15T15:18:21;1.13;;;0.70;;
38859;SDS011;24609;48.316;16.174;2023-04-15T15:20:49;0.52;;;0.52;;
38859;SDS011;24609;48.316;16.174;2023-04-15T15:23:15;0.60;;;0.60;;
38859;SDS011;24609;48.316;16.174;2023-04-15T15:25:41;0.88;;;0.60;;
38859;SDS011;24609;48.316;16.174;2023-04-15T15:28:07;0.57;;;0.40;;